createdAt,value
2022-08-24T00:02:26.198Z,99.90
2022-08-24T00:05:02.239Z,99.90
2022-08-24T00:07:35.268Z,99.90
2022-08-24T00:10:05.553Z,99.90
2022-08-24T00:12:37.647Z,99.90
2022-08-24T00:15:11.754Z,99.90
2022-08-24T00:17:41.345Z,99.90
2022-08-24T00:20:45.101Z,99.90
2022-08-24T00:23:17.469Z,99.90
2022-08-24T00:25:48.862Z,99.90
2022-08-24T00:28:24.352Z,99.90
2022-08-24T00:30:56.127Z,99.90
2022-08-24T00:33:28.558Z,99.90
2022-08-24T00:36:02.268Z,99.90
2022-08-24T00:38:35.881Z,99.90
2022-08-24T00:46:33.533Z,99.90
2022-08-24T00:49:33.701Z,99.90
2022-08-24T00:52:08.543Z,99.90
2022-08-24T00:54:46.053Z,99.90
2022-08-24T00:57:17.865Z,99.90
2022-08-24T00:59:50.772Z,99.90
2022-08-24T01:02:31.350Z,99.90
2022-08-24T01:05:09.653Z,99.90
2022-08-24T01:07:41.859Z,99.90
2022-08-24T01:10:14.251Z,99.90
2022-08-24T01:13:00.502Z,99.90
2022-08-24T01:15:37.882Z,99.90
2022-08-24T01:18:27.846Z,99.90
2022-08-24T01:21:05.083Z,99.90
2022-08-24T01:23:41.142Z,99.90
2022-08-24T01:26:18.441Z,99.90
2022-08-24T01:28:51.625Z,99.90
2022-08-24T01:31:22.395Z,99.90
2022-08-24T01:33:53.434Z,99.90
2022-08-24T01:36:47.580Z,99.90
2022-08-24T01:39:39.457Z,99.90
2022-08-24T01:42:16.556Z,99.90
2022-08-24T01:44:47.169Z,99.90
2022-08-24T01:47:17.243Z,99.90
2022-08-24T01:49:49.890Z,99.90
2022-08-24T01:52:25.554Z,99.90
2022-08-24T01:55:02.081Z,99.90
2022-08-24T01:57:31.534Z,99.90
2022-08-24T02:00:02.620Z,99.90
2022-08-24T02:03:45.554Z,99.90
2022-08-24T02:06:18.494Z,99.90
2022-08-24T02:08:47.250Z,99.90
2022-08-24T02:11:24.098Z,99.90
2022-08-24T02:13:52.946Z,99.90
2022-08-24T02:16:21.328Z,99.90
2022-08-24T02:18:49.494Z,99.90
2022-08-24T02:21:20.735Z,99.90
2022-08-24T02:23:49.193Z,99.90
2022-08-24T02:26:21.858Z,99.90
2022-08-24T02:28:50.392Z,99.90
2022-08-24T02:31:18.919Z,99.90
2022-08-24T02:33:47.937Z,99.90
2022-08-24T02:36:25.598Z,99.90
2022-08-24T02:38:58.513Z,99.90
2022-08-24T02:41:27.716Z,99.90
2022-08-24T02:43:57.116Z,99.90
2022-08-24T02:46:30.567Z,99.90
2022-08-24T02:49:10.411Z,99.90
2022-08-24T02:51:49.525Z,99.90
2022-08-24T02:54:21.447Z,99.90
2022-08-24T02:56:57.907Z,99.90
2022-08-24T03:00:00.058Z,99.90
2022-08-24T03:02:29.384Z,99.90
2022-08-24T03:04:57.675Z,99.90
2022-08-24T03:07:26.072Z,99.90
2022-08-24T03:09:58.398Z,99.90
2022-08-24T03:12:28.365Z,99.90
2022-08-24T03:15:00.614Z,99.90
2022-08-24T03:17:33.807Z,99.90
2022-08-24T03:20:05.106Z,99.90
2022-08-24T03:22:34.086Z,99.90
2022-08-24T03:25:11.685Z,99.90
2022-08-24T03:27:41.154Z,99.90
2022-08-24T03:30:13.508Z,99.90
2022-08-24T03:32:44.122Z,99.90
2022-08-24T03:35:14.614Z,99.90
2022-08-24T03:37:43.493Z,99.90
2022-08-24T03:40:23.039Z,99.90
2022-08-24T03:42:55.931Z,99.90
2022-08-24T03:45:33.145Z,99.90
2022-08-24T03:48:03.522Z,99.90
2022-08-24T03:55:07.700Z,99.90
2022-08-24T03:57:36.864Z,99.90
2022-08-24T04:00:13.390Z,99.90
2022-08-24T04:03:01.853Z,99.90
2022-08-24T04:05:34.897Z,99.90
2022-08-24T04:08:12.139Z,99.90
2022-08-24T04:10:55.045Z,99.90
2022-08-24T04:13:25.260Z,99.90
2022-08-24T04:15:57.730Z,99.90
2022-08-24T04:18:36.936Z,99.90
2022-08-24T04:21:06.433Z,99.90
2022-08-24T04:23:46.897Z,99.90
2022-08-24T04:26:36.412Z,99.90
2022-08-24T04:30:44.002Z,99.90
2022-08-24T04:33:15.106Z,99.90
2022-08-24T04:35:48.574Z,99.90
2022-08-24T04:38:19.331Z,99.90
2022-08-24T04:41:09.883Z,99.90
2022-08-24T04:43:48.165Z,99.90
2022-08-24T04:46:20.731Z,99.90
2022-08-24T04:48:49.730Z,99.90
2022-08-24T04:51:36.700Z,99.90
2022-08-24T04:54:08.692Z,99.90
2022-08-24T04:56:43.520Z,99.90
2022-08-24T04:59:12.451Z,99.90
2022-08-24T05:01:49.516Z,99.90
2022-08-24T05:09:41.151Z,99.90
2022-08-24T05:12:12.195Z,99.90
2022-08-24T05:14:55.781Z,99.90
2022-08-24T05:17:27.155Z,99.90
2022-08-24T05:19:58.853Z,99.90
2022-08-24T05:23:03.884Z,99.90
2022-08-24T05:25:35.208Z,99.90
2022-08-24T05:28:04.134Z,99.90
2022-08-24T05:30:42.723Z,99.90
2022-08-24T05:33:11.869Z,99.90
2022-08-24T05:35:47.931Z,99.90
2022-08-24T05:43:30.270Z,99.90
2022-08-24T05:46:00.356Z,99.90
2022-08-24T05:48:29.815Z,99.90
2022-08-24T05:51:27.007Z,99.90
2022-08-24T05:54:04.422Z,99.90
2022-08-24T05:56:44.895Z,99.90
2022-08-24T05:59:14.833Z,99.90
2022-08-24T06:01:45.646Z,99.90
2022-08-24T06:04:23.945Z,99.90
2022-08-24T06:07:00.038Z,99.90
2022-08-24T06:09:31.584Z,99.90
2022-08-24T06:12:01.393Z,99.90
2022-08-24T06:14:31.488Z,99.90
2022-08-24T06:17:09.030Z,99.90
2022-08-24T06:20:14.814Z,99.90
2022-08-24T06:22:44.717Z,99.90
2022-08-24T06:25:32.253Z,99.90
2022-08-24T06:28:01.072Z,99.90
2022-08-24T06:30:35.208Z,99.90
2022-08-24T06:33:15.901Z,99.90
2022-08-24T06:35:53.769Z,99.90
2022-08-24T06:38:31.313Z,99.90
2022-08-24T06:41:00.366Z,99.90
2022-08-24T06:43:36.342Z,99.90
2022-08-24T06:46:13.154Z,99.90
2022-08-24T06:48:45.103Z,99.90
2022-08-24T06:51:17.779Z,99.90
2022-08-24T06:53:47.627Z,99.90
2022-08-24T06:56:19.357Z,99.90
2022-08-24T06:58:48.294Z,99.90
2022-08-24T07:01:22.211Z,99.90
2022-08-24T07:03:52.245Z,99.90
2022-08-24T07:06:52.916Z,99.90
2022-08-24T07:09:25.120Z,99.90
2022-08-24T07:11:57.652Z,99.90
2022-08-24T07:14:32.285Z,99.90
2022-08-24T07:17:34.820Z,99.90
2022-08-24T07:20:03.243Z,99.90
2022-08-24T07:23:08.760Z,99.90
2022-08-24T07:25:49.585Z,99.90
2022-08-24T07:28:27.759Z,99.90
2022-08-24T07:31:01.574Z,99.90
2022-08-24T07:33:37.598Z,99.90
2022-08-24T07:36:06.858Z,99.90
2022-08-24T07:38:36.476Z,99.90
2022-08-24T07:41:33.748Z,99.90
2022-08-24T07:43:53.588Z,99.90
2022-08-24T07:46:22.988Z,99.90
2022-08-24T07:49:00.140Z,99.90
2022-08-24T07:51:44.971Z,99.90
2022-08-24T07:54:32.426Z,99.90
2022-08-24T07:57:06.932Z,99.90
2022-08-24T07:59:42.734Z,99.90
2022-08-24T08:02:12.309Z,99.90
2022-08-24T08:04:44.502Z,99.90
2022-08-24T08:07:15.086Z,99.90
2022-08-24T08:09:43.964Z,99.90
2022-08-24T08:12:13.475Z,99.90
2022-08-24T08:14:59.624Z,99.90
2022-08-24T08:17:29.271Z,99.90
2022-08-24T08:19:57.942Z,99.90
2022-08-24T08:22:47.160Z,99.90
2022-08-24T08:25:39.009Z,99.90
2022-08-24T08:28:25.030Z,99.90
2022-08-24T08:30:56.820Z,99.90
2022-08-24T08:33:36.455Z,99.90
2022-08-24T08:36:12.654Z,99.90
2022-08-24T08:38:46.483Z,99.10
2022-08-24T08:41:22.082Z,99.90
2022-08-24T08:44:39.916Z,99.20
2022-08-24T08:47:27.307Z,97.50
2022-08-24T08:50:24.141Z,97.30
2022-08-24T08:53:14.679Z,98.50
2022-08-24T08:56:03.761Z,98.90
2022-08-24T08:58:59.501Z,96.10
2022-08-24T09:02:16.661Z,95.20
2022-08-24T09:04:59.126Z,93.50
2022-08-24T09:07:45.519Z,93.80
2022-08-24T09:10:21.965Z,93.20
2022-08-24T09:13:14.328Z,94.10
2022-08-24T09:16:07.182Z,98.00
2022-08-24T09:19:13.641Z,96.10
2022-08-24T09:21:56.329Z,96.50
2022-08-24T09:24:36.264Z,97.90
2022-08-24T09:27:36.248Z,97.80
2022-08-24T09:30:22.011Z,92.90
2022-08-24T09:32:50.665Z,94.30
2022-08-24T09:35:31.812Z,96.00
2022-08-24T09:38:38.995Z,95.30
2022-08-24T09:41:12.460Z,97.40
2022-08-24T09:44:19.249Z,96.10
2022-08-24T09:46:59.653Z,92.00
2022-08-24T09:49:50.721Z,95.50
2022-08-24T09:52:27.528Z,91.40
2022-08-24T09:55:14.626Z,91.50
2022-08-24T09:58:01.696Z,94.20
2022-08-24T10:01:10.431Z,94.20
2022-08-24T10:04:14.956Z,89.20
2022-08-24T10:07:18.000Z,88.20
2022-08-24T10:10:08.698Z,88.80
2022-08-24T10:13:00.489Z,85.90
2022-08-24T10:15:58.710Z,85.40
2022-08-24T10:18:35.235Z,83.20
2022-08-24T10:21:32.930Z,82.30
2022-08-24T10:24:26.623Z,79.40
2022-08-24T10:27:02.210Z,80.90
2022-08-24T10:29:58.140Z,77.80
2022-08-24T10:32:32.069Z,75.50
2022-08-24T10:35:10.175Z,72.10
2022-08-24T10:37:51.856Z,75.20
2022-08-24T10:40:55.239Z,71.90
2022-08-24T10:43:38.897Z,66.90
2022-08-24T10:46:38.059Z,74.00
2022-08-24T10:49:37.005Z,73.80
2022-08-24T10:52:16.267Z,67.00
2022-08-24T10:54:45.764Z,66.70
2022-08-24T10:57:40.801Z,67.70
2022-08-24T11:00:22.600Z,72.50
2022-08-24T11:03:27.940Z,64.50
2022-08-24T11:06:25.691Z,64.00
2022-08-24T11:09:17.216Z,68.70
2022-08-24T11:11:50.061Z,72.90
2022-08-24T11:14:29.824Z,69.90
2022-08-24T11:17:19.425Z,64.70
2022-08-24T11:19:49.054Z,65.00
2022-08-24T11:22:57.175Z,61.80
2022-08-24T11:25:32.330Z,63.40
2022-08-24T11:28:06.263Z,66.60
2022-08-24T11:30:38.977Z,61.40
2022-08-24T11:33:33.903Z,63.30
2022-08-24T11:36:02.778Z,63.30
2022-08-24T11:38:35.077Z,62.50
2022-08-24T11:41:22.357Z,60.90
2022-08-24T11:44:30.261Z,61.40
2022-08-24T11:47:30.180Z,61.90
2022-08-24T11:50:23.005Z,62.50
2022-08-24T11:56:26.799Z,61.90
2022-08-24T11:59:06.997Z,62.40
2022-08-24T12:01:57.095Z,58.90
2022-08-24T12:04:40.528Z,59.70
2022-08-24T12:07:31.651Z,58.40
2022-08-24T12:10:37.700Z,58.60
2022-08-24T12:13:20.998Z,58.20
2022-08-24T12:16:09.824Z,55.60
2022-08-24T12:19:11.805Z,54.40
2022-08-24T12:21:45.383Z,57.20
2022-08-24T12:24:39.254Z,56.50
2022-08-24T12:27:32.301Z,55.90
2022-08-24T12:30:08.623Z,57.50
2022-08-24T12:32:46.799Z,55.40
2022-08-24T12:35:28.463Z,53.30
2022-08-24T12:38:22.144Z,54.30
2022-08-24T12:41:11.137Z,55.30
2022-08-24T12:44:01.725Z,54.50
2022-08-24T12:46:30.428Z,53.30
2022-08-24T12:49:19.997Z,54.60
2022-08-24T12:52:36.741Z,55.50
2022-08-24T12:55:31.796Z,54.40
2022-08-24T12:58:32.200Z,58.20
2022-08-24T13:01:08.617Z,56.20
2022-08-24T13:03:39.593Z,54.60
2022-08-24T13:06:31.987Z,54.70
2022-08-24T13:09:26.089Z,53.90
2022-08-24T13:11:56.892Z,53.90
2022-08-24T13:14:29.799Z,53.10
2022-08-24T13:17:05.557Z,54.10
2022-08-24T13:19:38.722Z,53.70
2022-08-24T13:22:10.024Z,53.30
2022-08-24T13:24:42.814Z,54.70
2022-08-24T13:27:16.129Z,56.50
2022-08-24T13:30:06.474Z,53.80
2022-08-24T13:32:44.326Z,55.80
2022-08-24T13:35:37.445Z,52.20
2022-08-24T13:38:24.358Z,54.00
2022-08-24T13:41:05.949Z,52.00
2022-08-24T13:43:46.217Z,52.60
2022-08-24T13:46:48.788Z,55.70
2022-08-24T13:49:49.292Z,54.10
2022-08-24T13:52:37.817Z,51.40
2022-08-24T13:55:33.997Z,51.60
2022-08-24T13:58:23.740Z,53.60
2022-08-24T14:01:34.670Z,53.70
2022-08-24T14:04:26.769Z,51.70
2022-08-24T14:07:07.286Z,50.50
2022-08-24T14:09:39.500Z,50.80
2022-08-24T14:12:13.304Z,55.50
2022-08-24T14:14:41.245Z,52.50
2022-08-24T14:17:55.494Z,53.10
2022-08-24T14:21:11.810Z,53.80
2022-08-24T14:23:59.992Z,51.80
2022-08-24T14:26:43.605Z,55.10
2022-08-24T14:29:19.728Z,53.90
2022-08-24T14:32:12.214Z,52.10
2022-08-24T14:35:12.423Z,52.50
2022-08-24T14:37:58.985Z,54.40
2022-08-24T14:40:37.730Z,52.90
2022-08-24T14:43:11.658Z,52.50
2022-08-24T14:46:17.124Z,53.20
2022-08-24T14:48:51.045Z,54.90
2022-08-24T14:51:55.645Z,55.50
2022-08-24T14:54:33.011Z,54.20
2022-08-24T14:57:06.894Z,53.80
2022-08-24T15:00:04.052Z,55.00
2022-08-24T15:02:55.026Z,54.70
2022-08-24T15:05:44.473Z,57.00
2022-08-24T15:08:42.801Z,56.70
2022-08-24T15:11:18.461Z,56.90
2022-08-24T15:13:49.257Z,54.80
2022-08-24T15:16:54.172Z,55.90
2022-08-24T15:19:32.416Z,56.40
2022-08-24T15:22:21.369Z,57.20
2022-08-24T15:25:03.606Z,56.40
2022-08-24T15:27:43.301Z,56.80
2022-08-24T15:30:33.725Z,58.10
2022-08-24T15:33:05.625Z,56.50
2022-08-24T15:35:49.212Z,55.90
2022-08-24T15:38:35.998Z,56.90
2022-08-24T15:41:12.714Z,56.20
2022-08-24T15:43:56.589Z,56.00
2022-08-24T15:46:34.385Z,55.60
2022-08-24T15:49:16.605Z,56.30
2022-08-24T15:51:55.356Z,56.50
2022-08-24T15:54:24.870Z,56.80
2022-08-24T15:56:57.741Z,57.00
2022-08-24T15:59:39.397Z,57.50
2022-08-24T16:02:26.562Z,58.80
2022-08-24T16:05:16.971Z,58.20
2022-08-24T16:08:07.374Z,56.00
2022-08-24T16:10:50.255Z,57.20
2022-08-24T16:13:18.565Z,57.50
2022-08-24T16:16:05.248Z,58.60
2022-08-24T16:18:55.678Z,57.00
2022-08-24T16:22:02.230Z,58.50
2022-08-24T16:24:35.136Z,58.50
2022-08-24T16:27:14.258Z,59.60
2022-08-24T16:29:55.725Z,59.80
2022-08-24T16:32:51.690Z,60.20
2022-08-24T16:35:25.267Z,60.80
2022-08-24T16:37:55.832Z,60.60
2022-08-24T16:40:24.872Z,61.00
2022-08-24T16:42:56.635Z,62.80
2022-08-24T16:45:24.651Z,60.90
2022-08-24T16:47:52.547Z,61.50
2022-08-24T16:50:21.998Z,62.20
2022-08-24T16:52:55.246Z,62.10
2022-08-24T16:55:23.508Z,63.30
2022-08-24T16:57:51.589Z,62.20
2022-08-24T17:00:22.366Z,61.80
2022-08-24T17:02:50.777Z,62.40
2022-08-24T17:05:50.783Z,62.40
2022-08-24T17:08:27.265Z,62.50
2022-08-24T17:10:56.586Z,63.10
2022-08-24T17:13:48.513Z,63.00
2022-08-24T17:16:14.767Z,62.90
2022-08-24T17:18:43.162Z,62.30
2022-08-24T17:21:19.432Z,62.30
2022-08-24T17:23:49.126Z,63.10
2022-08-24T17:26:20.279Z,62.00
2022-08-24T17:28:55.014Z,62.10
2022-08-24T17:31:26.504Z,62.40
2022-08-24T17:33:54.849Z,62.80
2022-08-24T17:36:24.048Z,62.90
2022-08-24T17:38:56.018Z,62.70
2022-08-24T17:41:26.162Z,63.40
2022-08-24T17:43:55.183Z,62.60
2022-08-24T17:46:24.098Z,62.90
2022-08-24T17:48:57.856Z,62.30
2022-08-24T17:51:26.228Z,62.50
2022-08-24T17:53:54.152Z,63.50
2022-08-24T17:56:22.742Z,63.20
2022-08-24T17:59:08.840Z,64.90
2022-08-24T18:01:36.940Z,64.80
2022-08-24T18:04:05.249Z,66.10
2022-08-24T18:06:34.595Z,67.40
2022-08-24T18:09:07.198Z,67.50
2022-08-24T18:11:35.395Z,70.50
2022-08-24T18:14:03.729Z,70.70
2022-08-24T18:16:32.987Z,70.10
2022-08-24T18:19:01.207Z,69.50
2022-08-24T18:21:30.006Z,70.50
2022-08-24T18:23:58.974Z,71.30
2022-08-24T18:26:28.928Z,71.10
2022-08-24T18:33:17.896Z,71.60
2022-08-24T18:35:51.135Z,72.20
2022-08-24T18:38:26.793Z,72.60
2022-08-24T18:40:58.075Z,73.40
2022-08-24T18:43:34.062Z,73.60
2022-08-24T18:46:03.819Z,74.10
2022-08-24T18:48:33.804Z,75.00
2022-08-24T18:51:03.855Z,75.90
2022-08-24T18:53:34.615Z,77.70
2022-08-24T18:56:10.465Z,78.10
2022-08-24T18:58:41.785Z,78.20
2022-08-24T19:01:11.932Z,78.80
2022-08-24T19:03:44.298Z,79.60
2022-08-24T19:06:12.199Z,80.80
2022-08-24T19:08:40.658Z,81.70
2022-08-24T19:11:10.647Z,82.30
2022-08-24T19:13:43.098Z,82.90
2022-08-24T19:16:11.850Z,83.60
2022-08-24T19:18:49.643Z,84.50
2022-08-24T19:21:18.582Z,85.10
2022-08-24T19:23:48.835Z,87.10
2022-08-24T19:26:19.387Z,87.90
2022-08-24T19:28:49.133Z,88.20
2022-08-24T19:31:21.329Z,90.10
2022-08-24T19:33:50.076Z,89.20
2022-08-24T19:36:19.179Z,90.10
2022-08-24T19:38:47.704Z,89.80
2022-08-24T19:41:21.475Z,90.10
2022-08-24T19:44:23.425Z,91.20
2022-08-24T19:46:57.311Z,91.50
2022-08-24T19:49:26.588Z,91.80
2022-08-24T19:51:57.061Z,91.80
2022-08-24T19:54:25.798Z,92.60
2022-08-24T19:56:54.579Z,92.30
2022-08-24T19:59:31.274Z,92.50
2022-08-24T20:02:05.182Z,93.10
2022-08-24T20:04:33.935Z,93.60
2022-08-24T20:07:03.795Z,94.00
2022-08-24T20:10:12.698Z,95.10
2022-08-24T20:12:42.443Z,95.30
2022-08-24T20:15:17.863Z,95.20
2022-08-24T20:17:57.528Z,95.70
2022-08-24T20:20:28.207Z,96.30
2022-08-24T20:22:57.139Z,96.60
2022-08-24T20:25:25.707Z,96.70
2022-08-24T20:28:12.467Z,97.50
2022-08-24T20:30:55.006Z,97.60
2022-08-24T20:33:27.804Z,98.30
2022-08-24T20:35:57.496Z,98.90
2022-08-24T20:38:31.728Z,99.70
2022-08-24T20:41:02.236Z,99.90
2022-08-24T20:43:31.858Z,99.90
2022-08-24T20:46:04.405Z,99.90
2022-08-24T20:48:43.214Z,99.90
2022-08-24T20:51:14.551Z,99.90
2022-08-24T20:53:45.842Z,99.90
2022-08-24T20:56:46.387Z,99.90
2022-08-24T20:59:16.431Z,99.90
2022-08-24T21:01:47.469Z,99.90
2022-08-24T21:04:15.975Z,99.90
2022-08-24T21:06:46.448Z,99.90
2022-08-24T21:09:19.450Z,99.90
2022-08-24T21:11:52.333Z,99.90
2022-08-24T21:14:22.189Z,99.90
2022-08-24T21:16:51.606Z,99.90
2022-08-24T21:19:20.120Z,99.90
2022-08-24T21:22:21.950Z,99.90
2022-08-24T21:24:50.850Z,99.90
2022-08-24T21:27:24.193Z,99.90
2022-08-24T21:29:53.111Z,99.90
2022-08-24T21:32:47.709Z,99.90
2022-08-24T21:35:20.099Z,99.90
2022-08-24T21:37:49.681Z,99.90
2022-08-24T21:40:18.918Z,99.90
2022-08-24T21:42:48.457Z,99.90
2022-08-24T21:45:26.156Z,99.90
2022-08-24T21:48:01.218Z,99.90
2022-08-24T21:50:29.744Z,99.90
2022-08-24T21:52:59.504Z,99.90
2022-08-24T21:55:28.457Z,99.90
2022-08-24T21:57:56.981Z,99.90
2022-08-24T22:00:35.871Z,99.90
2022-08-24T22:03:11.690Z,99.90
2022-08-24T22:05:48.161Z,99.90
2022-08-24T22:08:16.630Z,99.90
2022-08-24T22:11:19.378Z,99.90
2022-08-24T22:13:56.350Z,99.90
2022-08-24T22:16:30.681Z,99.90
2022-08-24T22:19:04.569Z,99.90
2022-08-24T22:21:35.789Z,99.90
2022-08-24T22:24:14.144Z,99.90
2022-08-24T22:26:43.290Z,99.90
2022-08-24T22:29:18.350Z,99.90
2022-08-24T22:31:47.758Z,99.90
2022-08-24T22:34:21.951Z,99.90
2022-08-24T22:36:50.699Z,99.90
2022-08-24T22:39:26.375Z,99.90
2022-08-24T22:41:58.887Z,99.90
2022-08-24T22:44:31.060Z,99.90
2022-08-24T22:47:33.631Z,99.90
2022-08-24T22:50:02.216Z,99.90
2022-08-24T22:52:30.659Z,99.90
2022-08-24T22:55:03.171Z,99.90
2022-08-24T22:57:31.752Z,99.90
2022-08-24T23:00:02.513Z,99.90
2022-08-24T23:02:31.640Z,99.90
2022-08-24T23:04:59.706Z,99.90
2022-08-24T23:07:28.710Z,99.90
2022-08-24T23:09:58.865Z,99.90
2022-08-24T23:12:29.017Z,99.90
2022-08-24T23:14:58.771Z,99.90
2022-08-24T23:17:36.906Z,99.90
2022-08-24T23:20:10.184Z,99.90
2022-08-24T23:22:43.821Z,99.90
2022-08-24T23:25:14.241Z,99.90
2022-08-24T23:27:51.400Z,99.90
2022-08-24T23:30:26.287Z,99.90
2022-08-24T23:32:56.173Z,99.90
2022-08-24T23:35:24.499Z,99.90
2022-08-24T23:37:53.480Z,99.90
2022-08-24T23:40:22.251Z,99.90
2022-08-24T23:42:52.181Z,99.90
2022-08-24T23:45:28.380Z,99.90
2022-08-24T23:48:00.156Z,99.90
2022-08-24T23:50:32.199Z,99.90
2022-08-24T23:53:03.711Z,99.90
2022-08-24T23:55:32.765Z,99.90
2022-08-24T23:58:32.933Z,99.90
